»·PEaware :: SWA2069 KSJC-KEUG

SWA2069 :: KSJC-KEUG

FLIGHT INFORMATION

Flight Status: Arrived
Operator:
Southwest Airlines
More flights by this operator :: More flights under this callsign
Pilot: Will K. (13011)
Aircraft: BOEING 737-700
(B737)
More flights by this aircraft type
Origin: KSJC Mineta San Jose Intl
United States
Destination: KEUG Mahlon Sweet
United States
More flights between these airports :: More routes between these airports
Route: LOUPE4 BMRNG HRNER EUG
File this flight plan on PilotEdge
Remarks:
Altitude:
(Current/Filed)
32,000ft
Speed:
(Current/Filed)
460kts
Departed: 18-Sep-18 04:53 PM
Arrived: 18-Sep-18 06:03 PM
Distance/Time
Traveled:
410nm/1:10
Distance/Time
To Go:
Arrived

Flight Plot

Page will automatically refresh every two minutes.

Flight plan parsing failed; only flown route is shown


Map Options




Map Legend


Flown Route
Filed Route
Departure Airport
Arrival Airport
Navaid (VOR, NDB)
Fix

Horizontal Profiles

Position Reports

Time Latitude Longitude Heading Altitude Ground
Speed
18-Sep-18 16:21 37.365058 -121.925414 48 69ft 0kts
18-Sep-18 16:22 37.365058 -121.925414 48 69ft 0kts
18-Sep-18 16:23 37.365058 -121.925414 48 69ft 0kts
18-Sep-18 16:24 37.365058 -121.925414 48 69ft 0kts
18-Sep-18 16:25 37.365058 -121.925414 48 69ft 0kts
18-Sep-18 16:26 37.365058 -121.925414 48 69ft 0kts
18-Sep-18 16:27 37.365058 -121.925414 48 69ft 0kts
18-Sep-18 16:28 37.365058 -121.925414 48 69ft 0kts
18-Sep-18 16:29 37.365058 -121.925414 48 69ft 0kts
18-Sep-18 16:30 37.365058 -121.925414 48 69ft 0kts
18-Sep-18 16:31 37.365058 -121.925414 48 69ft 0kts
18-Sep-18 16:32 37.365058 -121.925414 48 69ft 0kts
18-Sep-18 16:33 37.365058 -121.925414 48 69ft 0kts
18-Sep-18 16:34 37.365058 -121.925414 48 69ft 0kts
18-Sep-18 16:35 37.365058 -121.925414 48 69ft 0kts
18-Sep-18 16:36 37.365058 -121.925414 48 69ft 0kts
18-Sep-18 16:37 37.365058 -121.925414 48 69ft 0kts
18-Sep-18 16:38 37.365058 -121.925414 48 69ft 0kts
18-Sep-18 16:39 37.365058 -121.925414 48 69ft 0kts
18-Sep-18 16:40 37.365058 -121.925414 48 69ft 0kts
18-Sep-18 16:41 37.365058 -121.925414 48 69ft 0kts
18-Sep-18 16:42 37.365058 -121.925414 48 69ft 0kts
18-Sep-18 16:43 37.365058 -121.925414 48 69ft 0kts
18-Sep-18 16:44 37.364836 -121.925757 56 69ft 2kts
18-Sep-18 16:45 37.364806 -121.926418 138 69ft 1kts
18-Sep-18 16:46 37.364839 -121.926453 138 69ft 0kts
18-Sep-18 16:47 37.364839 -121.926453 138 69ft 0kts
18-Sep-18 16:48 37.364765 -121.926372 138 70ft 7kts
18-Sep-18 16:49 37.361837 -121.923166 137 69ft 13kts
18-Sep-18 16:50 37.358697 -121.919718 138 69ft 9kts
18-Sep-18 16:51 37.354457 -121.915079 139 69ft 19kts
18-Sep-18 16:52 37.353115 -121.914438 228 70ft 0kts
18-Sep-18 16:53 37.353115 -121.914439 228 70ft 0kts
18-Sep-18 16:54 37.352711 -121.915691 298 70ft 8kts
18-Sep-18 16:55 37.367902 -121.932434 318 314ft 173kts
18-Sep-18 16:56 37.411023 -121.978602 319 3187ft 228kts
18-Sep-18 16:57 37.464358 -121.990183 58 4962ft 225kts
18-Sep-18 16:58 37.439362 -121.926968 137 5024ft 219kts
18-Sep-18 16:59 37.389002 -121.867745 137 7068ft 278kts
18-Sep-18 17:00 37.330311 -121.798168 137 10753ft 301kts
18-Sep-18 17:01 37.258004 -121.726858 172 13024ft 353kts
18-Sep-18 17:02 37.175739 -121.782356 225 16517ft 352kts
18-Sep-18 17:03 37.184450 -121.894258 318 18897ft 390kts
18-Sep-18 17:04 37.295652 -121.898267 355 21260ft 427kts
18-Sep-18 17:05 37.405198 -121.950759 339 23573ft 437kts
18-Sep-18 17:06 37.531070 -121.958204 351 25588ft 462kts
18-Sep-18 17:07 37.661495 -121.969652 350 27283ft 479kts
18-Sep-18 17:08 37.796870 -121.981217 349 28920ft 492kts
18-Sep-18 17:09 37.934131 -121.992998 349 30767ft 496kts
18-Sep-18 17:10 38.072827 -122.005015 349 31936ft 506kts
18-Sep-18 17:11 38.212387 -122.017137 349 31967ft 504kts
18-Sep-18 17:12 38.351773 -122.030951 345 31961ft 497kts
18-Sep-18 17:13 38.488061 -122.057774 343 31941ft 493kts
18-Sep-18 17:14 38.623301 -122.084199 344 31942ft 491kts
18-Sep-18 17:15 38.758561 -122.110119 344 31942ft 494kts
18-Sep-18 17:16 38.893218 -122.135796 344 31934ft 489kts
18-Sep-18 17:17 39.027473 -122.161716 344 31933ft 485kts
18-Sep-18 17:18 39.159881 -122.187296 344 31933ft 481kts
18-Sep-18 17:19 39.291924 -122.212922 344 31931ft 480kts
18-Sep-18 17:20 39.424189 -122.238610 344 31923ft 480kts
18-Sep-18 17:21 39.556158 -122.264361 344 31924ft 479kts
18-Sep-18 17:22 39.688061 -122.290198 344 31921ft 479kts
18-Sep-18 17:23 39.819951 -122.316137 344 31925ft 479kts
18-Sep-18 17:24 39.952059 -122.342220 344 31920ft 479kts
18-Sep-18 17:25 40.083829 -122.368358 344 31919ft 477kts
18-Sep-18 17:26 40.214736 -122.394395 344 31919ft 475kts
18-Sep-18 17:27 40.342713 -122.419958 344 31916ft 473kts
18-Sep-18 17:28 40.472750 -122.446034 345 31912ft 471kts
18-Sep-18 17:29 40.601888 -122.472038 345 31915ft 469kts
18-Sep-18 17:30 40.730272 -122.497982 345 31932ft 465kts
18-Sep-18 17:31 40.858314 -122.523986 345 31956ft 464kts
18-Sep-18 17:32 40.985260 -122.549831 346 31979ft 461kts
18-Sep-18 17:33 41.111915 -122.575719 346 32001ft 459kts
18-Sep-18 17:34 41.235951 -122.601342 347 32011ft 441kts
18-Sep-18 17:35 41.356538 -122.626083 347 32015ft 438kts
18-Sep-18 17:36 41.477446 -122.651047 347 32010ft 438kts
18-Sep-18 17:37 41.597658 -122.675989 347 32001ft 438kts
18-Sep-18 17:38 41.718266 -122.701117 347 31996ft 437kts
18-Sep-18 17:39 41.838278 -122.726220 347 31995ft 437kts
18-Sep-18 17:40 41.938402 -122.747248 347 31999ft 437kts
18-Sep-18 17:41 42.078589 -122.776781 347 32003ft 436kts
18-Sep-18 17:42 42.178277 -122.797882 347 31930ft 437kts
18-Sep-18 17:43 42.317348 -122.827398 347 30763ft 428kts
18-Sep-18 17:44 42.433847 -122.852235 347 29761ft 418kts
18-Sep-18 17:45 42.528998 -122.872590 347 28929ft 414kts
18-Sep-18 17:46 42.642141 -122.896896 347 27926ft 408kts
18-Sep-18 17:47 42.753507 -122.920874 347 26926ft 403kts
18-Sep-18 17:48 42.863569 -122.944670 347 25601ft 395kts
18-Sep-18 17:49 42.969977 -122.967761 347 23724ft 379kts
18-Sep-18 17:50 43.072450 -122.990073 347 21889ft 366kts
18-Sep-18 17:51 43.171606 -123.011753 348 20094ft 355kts
18-Sep-18 17:52 43.267211 -123.032704 348 18323ft 350kts
18-Sep-18 17:53 43.364103 -123.053998 348 16409ft 342kts
18-Sep-18 17:54 43.455467 -123.074179 348 14595ft 339kts
18-Sep-18 17:55 43.546866 -123.094391 349 12739ft 315kts
18-Sep-18 17:56 43.633547 -123.113616 349 11351ft 302kts
18-Sep-18 17:57 43.710944 -123.130846 349 9904ft 267kts
18-Sep-18 17:58 43.782592 -123.146835 350 8069ft 255kts
18-Sep-18 17:59 43.851888 -123.162248 350 6186ft 248kts
18-Sep-18 18:00 43.918780 -123.177231 350 4388ft 239kts
18-Sep-18 18:01 43.978155 -123.195523 339 3933ft 200kts
18-Sep-18 18:02 44.030468 -123.218714 356 2513ft 197kts
18-Sep-18 18:03 44.082661 -123.218050 358 1017ft 172kts
18-Sep-18 18:04 44.121390 -123.218950 358 377ft 66kts
18-Sep-18 18:05 44.124159 -123.217181 143 377ft 16kts
18-Sep-18 18:06 44.121019 -123.213938 115 377ft 4kts
18-Sep-18 18:07 44.120344 -123.214007 210 377ft 0kts
18-Sep-18 18:08 44.120344 -123.214007 210 377ft 0kts
18-Sep-18 18:09 44.120344 -123.214007 210 377ft 0kts
18-Sep-18 18:10 44.120344 -123.214007 210 377ft 0kts
18-Sep-18 18:11 44.120344 -123.214007 210 377ft 0kts
18-Sep-18 18:12 44.120344 -123.214007 210 377ft 0kts
18-Sep-18 18:13 44.120344 -123.214007 210 377ft 0kts
18-Sep-18 18:14 44.120344 -123.214007 210 377ft 0kts
18-Sep-18 18:15 44.120344 -123.214007 210 377ft 0kts
18-Sep-18 18:16 44.120344 -123.214007 210 377ft 0kts
18-Sep-18 18:17 44.120344 -123.214007 210 377ft 0kts
18-Sep-18 18:18 44.120344 -123.214007 210 377ft 0kts
18-Sep-18 18:19 44.120344 -123.214007 210 377ft 0kts

Navigation Log

Ident Type
Flight plan parsing failed, navigation log unavailable